Time;durP1;ratioP1;P1;durP2;ratioP2;P2;SDS_P1;SDS_P2;PMS_P1;PMS_P2;Temp;Humidity;BMP_temperature;BMP_pressure;BME280_temperature;BME280_humidity;BME280_pressure;Samples;Min_cycle;Max_cycle;Signal;HPM_P1;HPM_P2
2023/07/24 00:01:15;;;;;;;;;6.00;5.00;;;;;22.51;57.15;100256.47;4954629;28;45230;-71
2023/07/24 00:03:40;;;;;;;;;6.00;5.00;;;;;22.57;57.13;100261.50;4958846;28;45459;-73
2023/07/24 00:06:06;;;;;;;;;2.00;2.00;;;;;22.56;57.11;100235.72;4958467;28;45439;-73
2023/07/24 00:08:32;;;;;;;;;6.00;3.00;;;;;22.55;57.17;100230.50;4958707;28;45531;-72
2023/07/24 00:10:57;;;;;;;;;5.00;4.00;;;;;22.52;57.10;100222.63;4958243;28;45458;-73
2023/07/24 00:13:23;;;;;;;;;3.33;3.33;;;;;22.50;57.37;100220.06;4958053;28;45572;-73
2023/07/24 00:15:52;;;;;;;;;4.00;4.00;;;;;22.39;57.48;100207.31;4958382;28;46573;-73
2023/07/24 00:18:17;;;;;;;;;4.00;4.00;;;;;22.37;57.39;100203.00;4951103;28;45528;-73
2023/07/24 00:20:43;;;;;;;;;6.00;3.33;;;;;22.29;57.38;100170.59;4957887;28;45427;-72
2023/07/24 00:23:09;;;;;;;;;5.33;4.67;;;;;22.46;57.18;100204.31;4958226;28;45703;-73
2023/07/24 00:25:34;;;;;;;;;4.67;3.33;;;;;22.35;57.28;100184.44;4957851;28;46121;-72
2023/07/24 00:28:00;;;;;;;;;8.33;4.00;;;;;22.39;57.02;100193.13;4942946;28;45448;-73
2023/07/24 00:30:25;;;;;;;;;5.00;3.00;;;;;22.22;57.26;100170.06;4953485;28;45320;-73
2023/07/24 00:32:51;;;;;;;;;4.00;4.00;;;;;22.25;57.08;100166.34;4958561;28;45452;-72
2023/07/24 00:35:20;;;;;;;;;5.00;4.33;;;;;22.38;57.09;100173.59;4957523;28;46204;-72
2023/07/24 00:37:45;;;;;;;;;6.00;5.67;;;;;22.43;56.91;100179.53;4957269;28;45608;-72
2023/07/24 00:40:12;;;;;;;;;7.00;4.00;;;;;22.47;56.99;100179.34;4958019;28;45472;-72
2023/07/24 00:42:37;;;;;;;;;3.67;3.00;;;;;22.37;57.00;100177.19;4957467;28;45602;-73
2023/07/24 00:45:03;;;;;;;;;2.67;2.67;;;;;22.34;57.13;100144.50;4957104;28;46344;-71
2023/07/24 00:47:29;;;;;;;;;5.67;3.33;;;;;22.38;56.69;100144.25;4957609;28;45365;-73
2023/07/24 00:49:55;;;;;;;;;3.67;3.67;;;;;22.26;56.82;100134.28;4958666;28;45377;-72
2023/07/24 00:52:21;;;;;;;;;4.00;2.00;;;;;22.27;56.82;100133.31;4958767;28;45423;-73
2023/07/24 00:54:47;;;;;;;;;3.33;3.33;;;;;22.25;56.73;100119.19;4958328;28;45380;-72
2023/07/24 00:57:13;;;;;;;;;5.67;5.00;;;;;22.26;56.73;100122.72;4958641;28;45487;-71
2023/07/24 00:59:41;;;;;;;;;3.33;3.33;;;;;22.20;57.05;100124.78;4957760;28;45526;-73
2023/07/24 01:02:07;;;;;;;;;6.67;4.00;;;;;21.96;57.30;100110.13;4957306;28;45427;-73
2023/07/24 01:04:33;;;;;;;;;5.33;4.33;;;;;21.96;57.28;100128.78;4956601;28;45803;-72
2023/07/24 01:06:59;;;;;;;;;6.33;4.33;;;;;22.02;57.47;100147.13;4951834;28;45357;-71
2023/07/24 01:09:25;;;;;;;;;1.67;1.67;;;;;22.00;57.25;100144.53;4957435;28;45401;-72
2023/07/24 01:11:56;;;;;;;;;3.00;3.00;;;;;22.00;57.17;100144.53;4957782;28;45420;-72
2023/07/24 01:14:46;;;;;;;;;5.00;3.33;;;;;22.02;57.22;100163.97;4957465;28;45522;-71
2023/07/24 01:17:17;;;;;;;;;6.00;4.00;;;;;22.01;57.23;100162.25;4956807;28;45404;-72
2023/07/24 01:19:50;;;;;;;;;5.67;4.67;;;;;22.00;57.19;100165.00;4957100;28;45715;-71
2023/07/24 01:22:31;;;;;;;;;5.00;4.00;;;;;21.92;57.08;100138.75;4956980;28;45483;-71
2023/07/24 01:25:20;;;;;;;;;5.00;5.00;;;;;22.08;56.82;100175.25;4956276;28;46118;-72
2023/07/24 01:27:46;;;;;;;;;5.00;3.33;;;;;22.08;56.78;100157.44;4957396;28;45326;-73
2023/07/24 01:30:17;;;;;;;;;4.67;4.67;;;;;21.93;56.57;100159.16;4957314;28;45446;-72
2023/07/24 01:32:43;;;;;;;;;5.33;5.00;;;;;21.86;56.72;100168.41;4958856;28;45475;-72
2023/07/24 01:35:09;;;;;;;;;5.67;5.33;;;;;21.88;56.67;100171.88;4960424;28;46511;-72
2023/07/24 01:37:39;;;;;;;;;8.00;6.00;;;;;21.80;56.58;100150.94;4960142;28;45545;-73
2023/07/24 01:40:09;;;;;;;;;5.00;4.00;;;;;21.97;56.39;100160.72;4961379;28;45352;-72
2023/07/24 01:42:35;;;;;;;;;2.67;2.67;;;;;21.90;56.39;100153.09;4958923;28;45536;-73
2023/07/24 01:45:03;;;;;;;;;11.67;5.33;;;;;21.94;56.21;100165.34;4959675;28;46273;-71
2023/07/24 01:47:29;;;;;;;;;5.33;4.67;;;;;21.78;56.22;100126.19;4959577;28;45880;-71
2023/07/24 01:49:56;;;;;;;;;5.00;4.33;;;;;21.70;56.05;100111.56;4958608;28;45277;-72
2023/07/24 01:52:22;;;;;;;;;3.33;3.00;;;;;21.99;56.13;100156.13;4960825;28;45395;-72
2023/07/24 01:54:47;;;;;;;;;7.00;3.67;;;;;22.01;56.07;100135.56;4960624;28;46236;-72
2023/07/24 01:57:13;;;;;;;;;5.00;4.00;;;;;22.03;55.97;100143.50;4959396;28;45463;-73
2023/07/24 01:59:38;;;;;;;;;5.00;5.00;;;;;21.79;56.22;100124.38;4957414;28;45288;-72
2023/07/24 02:02:04;;;;;;;;;5.67;3.67;;;;;21.85;56.61;100141.84;4960664;28;45451;-72
2023/07/24 02:04:30;;;;;;;;;7.00;5.33;;;;;21.73;56.33;100111.38;4970733;28;47712;-72
2023/07/24 02:06:55;;;;;;;;;5.67;4.00;;;;;21.73;56.62;100130.03;4959620;28;45531;-72
2023/07/24 02:09:21;;;;;;;;;6.00;4.33;;;;;21.66;56.91;100148.16;4958764;28;45404;-72
2023/07/24 02:11:46;;;;;;;;;4.33;4.00;;;;;21.55;57.68;100137.22;4960401;28;45340;-72
2023/07/24 02:14:16;;;;;;;;;6.33;6.33;;;;;21.56;57.78;100131.78;4956863;28;46143;-73
2023/07/24 02:16:42;;;;;;;;;15.00;8.00;;;;;21.46;58.24;100122.56;4959866;28;45390;-72
2023/07/24 02:19:07;;;;;;;;;5.00;5.00;;;;;21.27;58.40;100089.84;4960558;28;45405;-73
2023/07/24 02:21:33;;;;;;;;;7.00;5.67;;;;;21.33;59.59;100102.81;4959980;28;45299;-72
2023/07/24 02:23:59;;;;;;;;;6.00;5.67;;;;;21.24;59.92;100104.19;4959717;28;46187;-73
2023/07/24 02:26:24;;;;;;;;;7.67;4.33;;;;;21.05;60.44;100101.59;4959854;28;45419;-72
2023/07/24 02:28:50;;;;;;;;;5.00;5.00;;;;;21.27;60.63;100127.97;4959693;28;45508;-73
2023/07/24 02:31:22;;;;;;;;;6.00;4.33;;;;;21.30;60.61;100127.81;4959809;28;45496;-72
2023/07/24 02:33:48;;;;;;;;;5.33;5.33;;;;;21.10;60.86;100096.91;4959452;28;45454;-72
2023/07/24 02:36:13;;;;;;;;;8.00;6.33;;;;;21.24;60.81;100129.94;4958681;28;45503;-73
2023/07/24 02:38:39;;;;;;;;;6.00;4.33;;;;;21.22;60.63;100129.16;4959003;28;45396;-73
2023/07/24 02:41:04;;;;;;;;;3.67;3.67;;;;;21.16;60.72;100117.88;4959779;28;45438;-72
2023/07/24 02:43:30;;;;;;;;;7.67;5.67;;;;;21.28;60.74;100124.34;4958992;28;46778;-72
2023/07/24 02:46:01;;;;;;;;;8.00;6.67;;;;;21.14;60.74;100109.13;4959623;28;45306;-72
2023/07/24 02:48:27;;;;;;;;;7.00;5.00;;;;;21.20;60.81;100121.25;4958725;28;45448;-72
2023/07/24 02:50:52;;;;;;;;;6.33;5.67;;;;;21.22;61.42;100108.72;4959264;28;45293;-73
2023/07/24 02:53:18;;;;;;;;;6.67;4.67;;;;;21.23;61.10;100114.91;4959344;28;45502;-73
2023/07/24 02:55:44;;;;;;;;;8.00;6.33;;;;;21.19;61.11;100106.22;4958066;28;45585;-71
2023/07/24 02:58:13;;;;;;;;;6.33;5.00;;;;;21.05;61.34;100096.28;4959569;28;45690;-73
2023/07/24 03:00:40;;;;;;;;;9.33;5.33;;;;;20.99;61.42;100104.56;4956216;28;45229;-73
2023/07/24 03:03:06;;;;;;;;;6.00;4.67;;;;;20.76;60.99;100063.16;4939556;28;47954;-73
2023/07/24 03:05:34;;;;;;;;;5.00;5.00;;;;;21.02;60.97;100101.75;4954803;28;45721;-72
2023/07/24 03:07:59;;;;;;;;;3.00;3.00;;;;;21.20;61.00;100125.72;4951829;28;46187;-72
2023/07/24 03:10:25;;;;;;;;;7.33;7.00;;;;;21.19;61.39;100124.88;4960524;28;45531;-73
2023/07/24 03:12:51;;;;;;;;;5.33;5.00;;;;;21.08;60.99;100112.09;4958966;28;45418;-72
2023/07/24 03:15:17;;;;;;;;;9.00;4.33;;;;;21.15;61.08;100131.28;4958960;28;45442;-74
2023/07/24 03:17:43;;;;;;;;;4.67;4.67;;;;;21.22;61.39;100123.84;4959321;28;45628;-73
2023/07/24 03:20:17;;;;;;;;;5.33;4.00;;;;;21.23;62.00;100129.06;4958840;28;45444;-73
2023/07/24 03:22:43;;;;;;;;;9.00;5.00;;;;;21.25;61.28;100135.19;4958724;28;45406;-72
2023/07/24 03:25:09;;;;;;;;;5.00;5.00;;;;;21.25;62.01;100140.50;4958115;28;45586;-73
2023/07/24 03:27:38;;;;;;;;;7.33;4.33;;;;;21.26;61.83;100136.03;4959067;28;45492;-73
2023/07/24 03:30:04;;;;;;;;;5.00;4.00;;;;;20.94;61.86;100072.00;4958915;28;45502;-71
2023/07/24 03:32:29;;;;;;;;;9.00;5.67;;;;;21.10;62.08;100096.91;4956881;28;46431;-73
2023/07/24 03:34:55;;;;;;;;;7.00;6.33;;;;;21.21;62.09;100124.75;4957069;28;45610;-72
2023/07/24 03:37:20;;;;;;;;;5.00;5.00;;;;;21.21;62.11;100128.28;4959171;28;45546;-71
2023/07/24 03:39:46;;;;;;;;;2.67;1.67;;;;;21.24;62.50;100135.28;4958857;28;45522;-73
2023/07/24 03:42:14;;;;;;;;;7.33;5.33;;;;;21.21;62.76;100135.41;4958509;28;46121;-73
2023/07/24 03:44:40;;;;;;;;;6.00;6.00;;;;;21.22;62.83;100124.69;4958233;28;45468;-72
2023/07/24 03:47:07;;;;;;;;;5.00;5.00;;;;;21.17;63.05;100116.94;4958407;28;45511;-72
2023/07/24 03:49:33;;;;;;;;;4.33;4.33;;;;;21.01;63.36;100097.38;4958506;28;45565;-73
2023/07/24 03:51:59;;;;;;;;;7.00;5.33;;;;;21.11;63.46;100093.28;4958537;28;45439;-73
2023/07/24 03:54:24;;;;;;;;;6.00;4.33;;;;;21.09;63.86;100103.16;4958118;28;45408;-72
2023/07/24 03:56:50;;;;;;;;;6.67;3.33;;;;;21.10;63.19;100110.22;4957583;28;45466;-72
2023/07/24 03:59:16;;;;;;;;;4.00;4.00;;;;;20.69;63.72;100024.50;4957197;28;45459;-72
2023/07/24 04:01:41;;;;;;;;;6.67;4.33;;;;;21.12;63.69;100097.69;4958183;28;45475;-72
2023/07/24 04:04:07;;;;;;;;;4.00;4.00;;;;;21.13;64.06;100104.72;4957954;28;45452;-72
2023/07/24 04:06:32;;;;;;;;;4.00;4.00;;;;;21.01;64.10;100081.41;4958493;28;45467;-72
2023/07/24 04:08:59;;;;;;;;;3.33;3.33;;;;;21.05;64.31;100101.59;4960188;28;45566;-76
2023/07/24 04:11:24;;;;;;;;;5.33;3.33;;;;;21.05;64.67;100109.59;4954211;28;46733;-73
2023/07/24 04:13:53;;;;;;;;;6.67;5.33;;;;;21.04;64.83;100096.34;4960466;28;45397;-71
2023/07/24 04:16:20;;;;;;;;;4.67;3.67;;;;;21.03;65.05;100107.94;4961111;28;45425;-81
2023/07/24 04:18:45;;;;;;;;;3.33;3.33;;;;;20.92;64.86;100089.84;4959276;28;45499;-71
2023/07/24 04:21:11;;;;;;;;;8.67;5.33;;;;;21.13;64.75;100110.03;4958429;28;45328;-72
2023/07/24 04:23:38;;;;;;;;;6.33;5.00;;;;;20.96;65.01;100075.44;4959142;28;45460;-72
2023/07/24 04:26:05;;;;;;;;;4.67;4.00;;;;;21.10;65.00;100107.56;4958693;28;45791;-72
2023/07/24 04:28:31;;;;;;;;;4.33;4.33;;;;;21.04;65.58;100121.16;4959788;28;45298;-72
2023/07/24 04:31:01;;;;;;;;;3.00;3.00;;;;;20.90;65.62;100092.56;4960322;28;46648;-71
2023/07/24 04:33:27;;;;;;;;;5.00;3.33;;;;;21.08;65.67;100113.91;4962496;28;45514;-72
2023/07/24 04:35:55;;;;;;;;;4.00;2.67;;;;;21.09;65.41;100102.28;4963223;28;45475;-71
2023/07/24 04:38:20;;;;;;;;;3.67;3.00;;;;;20.99;66.00;100088.59;4953588;28;45551;-72
2023/07/24 04:40:46;;;;;;;;;5.67;3.33;;;;;21.01;66.32;100107.16;4958627;28;45374;-72
2023/07/24 04:43:14;;;;;;;;;3.67;2.33;;;;;21.02;66.31;100111.53;4958646;28;45363;-71
2023/07/24 04:45:39;;;;;;;;;2.67;2.67;;;;;20.97;66.20;100098.47;4958836;28;45446;-73
2023/07/24 04:48:05;;;;;;;;;4.67;3.33;;;;;20.99;65.93;100107.22;4957795;28;45555;-71
2023/07/24 04:50:34;;;;;;;;;4.33;4.33;;;;;21.00;66.29;100100.97;4956740;28;46051;-71
2023/07/24 04:53:00;;;;;;;;;4.00;3.00;;;;;20.96;66.19;100080.78;4957323;28;45471;-72
2023/07/24 04:55:26;;;;;;;;;3.00;2.00;;;;;20.95;66.18;100101.22;4958720;28;45315;-73
2023/07/24 04:57:51;;;;;;;;;3.33;3.00;;;;;21.01;66.43;100105.34;4957586;28;45285;-72
2023/07/24 05:00:17;;;;;;;;;2.67;1.67;;;;;20.95;66.00;100101.22;4957633;28;46514;-72
2023/07/24 05:02:42;;;;;;;;;3.00;3.00;;;;;20.86;66.24;100079.53;4958622;28;45495;-73
2023/07/24 05:05:08;;;;;;;;;2.00;2.00;;;;;21.07;65.81;100106.84;4957225;28;45586;-72
2023/07/24 05:07:34;;;;;;;;;1.67;1.67;;;;;21.10;65.66;100110.22;4958397;28;45470;-70
2023/07/24 05:10:02;;;;;;;;;3.00;3.00;;;;;21.09;65.22;100095.16;4960679;28;45560;-71
2023/07/24 05:12:27;;;;;;;;;2.00;2.00;;;;;21.06;65.07;100090.00;4960191;28;45439;-70
2023/07/24 05:14:53;;;;;;;;;2.33;2.00;;;;;21.18;64.88;100100.00;4953508;28;45457;-72
2023/07/24 05:17:19;;;;;;;;;3.00;1.33;;;;;21.22;64.32;100099.88;4954050;28;45412;-70
2023/07/24 05:19:44;;;;;;;;;3.33;3.00;;;;;21.28;64.12;100108.38;4960244;28;46164;-70
2023/07/24 05:22:10;;;;;;;;;2.00;1.67;;;;;21.28;63.55;100113.69;4960765;28;45639;-72
2023/07/24 05:24:37;;;;;;;;;2.00;2.00;;;;;21.26;63.34;100098.75;4958608;28;45449;-72
2023/07/24 05:27:04;;;;;;;;;2.00;2.00;;;;;21.28;63.09;100092.41;4960110;28;45518;-71
2023/07/24 05:29:30;;;;;;;;;1.00;1.00;;;;;21.37;62.28;100101.72;4959972;28;45751;-72
2023/07/24 05:31:55;;;;;;;;;1.33;1.33;;;;;21.50;61.95;100099.31;4958258;28;45564;-72
2023/07/24 05:34:21;;;;;;;;;1.67;1.67;;;;;21.49;60.57;100087.78;4960256;28;45368;-71
2023/07/24 05:36:46;;;;;;;;;2.00;2.00;;;;;21.56;60.60;100085.63;4961082;28;45836;-72
2023/07/24 05:39:12;;;;;;;;;2.67;1.67;;;;;21.58;60.54;100094.41;4947569;28;46279;-73
2023/07/24 05:41:38;;;;;;;;;3.00;2.00;;;;;21.61;60.18;100088.91;4955351;28;45519;-71
2023/07/24 05:44:05;;;;;;;;;4.00;2.00;;;;;21.56;59.67;100080.31;4960210;28;45781;-71
2023/07/24 05:46:31;;;;;;;;;1.00;1.00;;;;;21.64;58.98;100103.88;4959955;28;45421;-72
2023/07/24 05:48:56;;;;;;;;;2.33;1.00;;;;;21.68;59.01;100100.97;4955074;28;45344;-71
2023/07/24 05:51:22;;;;;;;;;3.67;2.00;;;;;21.68;58.04;100100.09;4956149;28;45671;-71
2023/07/24 05:53:51;;;;;;;;;2.00;2.00;;;;;21.64;57.00;100096.75;4958290;28;45401;-71
2023/07/24 05:56:16;;;;;;;;;1.00;1.00;;;;;21.64;56.87;100104.75;4950684;28;45539;-72
2023/07/24 05:58:42;;;;;;;;;2.00;2.00;;;;;21.64;56.43;100094.09;4956642;28;47143;-71
2023/07/24 06:01:10;;;;;;;;;1.67;1.67;;;;;21.60;56.07;100081.88;4959848;28;45483;-72
2023/07/24 06:03:36;;;;;;;;;1.00;1.00;;;;;21.57;55.60;100087.38;4959807;28;45377;-72
2023/07/24 06:06:02;;;;;;;;;2.00;2.00;;;;;21.56;55.57;100091.81;4959695;28;45366;-70
2023/07/24 06:08:28;;;;;;;;;1.67;1.67;;;;;21.69;55.34;100102.69;4959029;28;45605;-72
2023/07/24 06:10:53;;;;;;;;;1.00;1.00;;;;;21.59;55.29;100081.03;4959763;28;45531;-73
2023/07/24 06:13:19;;;;;;;;;1.00;1.00;;;;;21.79;55.11;100117.25;4959210;28;45470;-70
2023/07/24 06:15:48;;;;;;;;;3.67;2.00;;;;;21.75;54.86;100101.50;4960108;28;45686;-71
2023/07/24 06:18:14;;;;;;;;;2.33;2.00;;;;;21.80;55.12;100115.44;4958842;28;46086;-74
2023/07/24 06:20:39;;;;;;;;;3.00;3.00;;;;;21.97;54.39;100111.84;4960382;28;45424;-71
2023/07/24 06:23:05;;;;;;;;;1.00;1.00;;;;;21.87;53.82;100083.97;4954165;28;45580;-72
2023/07/24 06:25:31;;;;;;;;;2.00;2.00;;;;;22.15;53.82;100107.28;4959574;28;45530;-71
2023/07/24 06:27:57;;;;;;;;;1.00;1.00;;;;;22.25;53.66;100108.53;4960189;28;46133;-71
2023/07/24 06:30:23;;;;;;;;;2.33;2.00;;;;;22.33;53.01;100111.63;4959467;28;45269;-71
2023/07/24 06:32:48;;;;;;;;;3.00;1.00;;;;;22.33;53.30;100111.63;4960008;28;45358;-73
2023/07/24 06:35:14;;;;;;;;;2.00;2.00;;;;;22.36;52.83;100107.94;4974177;28;45559;-72
2023/07/24 06:37:39;;;;;;;;;3.00;1.00;;;;;22.41;52.06;100101.38;4958904;28;45511;-71
2023/07/24 06:40:09;;;;;;;;;3.00;1.00;;;;;22.54;52.18;100100.66;4960086;28;45378;-72
2023/07/24 06:42:34;;;;;;;;;1.33;1.33;;;;;22.55;51.70;100084.56;4961048;28;45416;-71
2023/07/24 06:45:02;;;;;;;;;3.00;2.00;;;;;22.70;51.23;100101.50;4960119;28;45588;-71
2023/07/24 06:47:33;;;;;;;;;2.00;2.00;;;;;22.64;51.07;100080.50;4959167;28;46099;-71
2023/07/24 06:50:02;;;;;;;;;3.33;2.00;;;;;22.82;50.04;100103.44;4958133;28;45480;-72
2023/07/24 06:52:28;;;;;;;;;1.33;1.33;;;;;22.82;50.19;100078.56;4960668;28;45560;-74
2023/07/24 06:54:53;;;;;;;;;2.00;1.33;;;;;22.95;50.13;100100.06;4960523;28;45399;-72
2023/07/24 06:57:20;;;;;;;;;2.00;2.00;;;;;23.07;50.32;100105.56;4958650;28;45487;-71
2023/07/24 06:59:52;;;;;;;;;2.67;1.00;;;;;23.00;49.95;100092.66;4956329;28;45793;-75
2023/07/24 07:02:18;;;;;;;;;2.67;2.67;;;;;23.08;50.98;100099.25;4959498;28;45445;-76
2023/07/24 07:04:44;;;;;;;;;2.67;1.00;;;;;22.61;50.77;100033.50;4960160;28;45477;-76
2023/07/24 07:07:15;;;;;;;;;1.67;1.67;;;;;22.91;49.60;100078.00;4947706;28;47771;-77
2023/07/24 07:09:50;;;;;;;;;2.00;2.00;;;;;23.04;49.92;100107.53;4958611;28;45641;-76
2023/07/24 07:12:22;;;;;;;;;4.33;1.00;;;;;23.08;49.77;100119.75;4954622;28;45531;-77
2023/07/24 07:14:51;;;;;;;;;3.00;2.00;;;;;22.88;49.20;100045.31;4960029;28;45447;-75
2023/07/24 07:17:30;;;;;;;;;1.00;1.00;;;;;23.02;49.12;100040.03;4957405;28;47549;-75
2023/07/24 07:20:05;;;;;;;;;5.25;1.00;;;;;23.48;48.97;100103.97;4956083;28;45468;-77
2023/07/24 07:22:34;;;;;;;;;2.00;2.00;;;;;23.67;48.00;100123.25;4956051;28;45473;-77
2023/07/24 07:25:08;;;;;;;;;3.00;1.00;;;;;23.59;48.58;100074.78;4960408;28;45337;-77
2023/07/24 07:27:41;;;;;;;;;1.00;1.00;;;;;23.60;48.56;100076.47;4959888;28;45514;-76
2023/07/24 07:30:18;;;;;;;;;1.00;1.00;;;;;23.80;47.75;100075.28;4959402;28;45570;-78
2023/07/24 07:32:59;;;;;;;;;1.50;1.50;;;;;23.84;48.14;100078.59;4960341;28;45534;-77
2023/07/24 07:35:38;;;;;;;;;1.00;1.00;;;;;24.00;48.22;100113.25;4959702;28;45604;-75
2023/07/24 07:38:05;;;;;;;;;2.00;2.00;;;;;23.75;48.01;100089.88;4955300;28;45681;-76
2023/07/24 07:40:41;;;;;;;;;2.00;2.00;;;;;23.76;48.63;100113.84;4960489;28;45357;-78
2023/07/24 07:43:10;;;;;;;;;2.75;1.00;;;;;23.37;47.98;100053.00;4959042;28;45368;-78
2023/07/24 07:45:40;;;;;;;;;2.50;2.50;;;;;23.68;48.32;100119.66;4961307;28;45571;-77
2023/07/24 07:48:08;;;;;;;;;4.33;1.33;;;;;23.10;48.21;100018.19;4960694;28;45334;-77
2023/07/24 07:50:38;;;;;;;;;2.00;2.00;;;;;23.03;48.77;100033.72;4959050;28;45503;-79
2023/07/24 07:53:06;;;;;;;;;2.00;1.50;;;;;23.48;48.33;100099.50;4958837;28;45490;-78
2023/07/24 07:55:43;;;;;;;;;1.00;1.00;;;;;23.02;47.99;100030.19;4956016;28;45400;-77
2023/07/24 07:58:17;;;;;;;;;2.00;1.25;;;;;22.98;48.48;100042.00;4950000;28;45444;-78
2023/07/24 08:00:49;;;;;;;;;1.50;1.00;;;;;23.55;47.40;100150.75;4958739;28;45526;-78
2023/07/24 08:03:16;;;;;;;;;1.25;1.25;;;;;23.51;47.66;100141.19;4959837;28;45369;-79
2023/07/24 08:05:46;;;;;;;;;2.25;2.25;;;;;23.18;46.93;100096.03;4958274;28;45593;-78
2023/07/24 08:08:36;;;;;;;;;2.50;2.00;;;;;23.61;46.02;100121.00;4952693;28;46426;-78
2023/07/24 08:11:12;;;;;;;;;1.25;1.25;;;;;23.61;46.01;100126.34;4959158;28;45341;-77
2023/07/24 08:13:42;;;;;;;;;3.00;1.67;;;;;23.55;46.27;100126.69;4958822;28;45476;-77
2023/07/24 08:16:32;;;;;;;;;5.75;2.50;;;;;22.95;46.54;100044.84;4959968;28;45337;-78
2023/07/24 08:19:05;;;;;;;;;2.00;2.00;;;;;23.34;47.06;100139.56;4957872;28;46463;-77
2023/07/24 08:21:34;;;;;;;;;2.00;1.00;;;;;22.88;47.01;100053.31;4957692;28;45513;-77
2023/07/24 08:24:12;;;;;;;;;1.00;1.00;;;;;23.26;47.29;100113.31;4957338;28;45628;-78
2023/07/24 08:27:03;;;;;;;;;3.25;1.50;;;;;23.47;47.36;100134.34;4958654;28;45646;-79
2023/07/24 08:29:33;;;;;;;;;2.00;1.75;;;;;23.66;46.38;100118.03;4955795;28;46664;-80
2023/07/24 08:31:58;;;;;;;;;2.00;2.00;;;;;23.78;46.34;100127.13;4961820;28;45413;-76
2023/07/24 08:34:24;;;;;;;;;4.00;3.00;;;;;23.38;44.92;100033.38;4963393;28;45826;-74
2023/07/24 08:36:50;;;;;;;;;1.75;1.00;;;;;23.40;44.30;100042.16;4963305;28;45740;-77
2023/07/24 08:39:18;;;;;;;;;2.25;2.00;;;;;23.35;45.29;100004.13;4962546;28;45983;-74
2023/07/24 08:41:44;;;;;;;;;1.00;1.00;;;;;23.72;43.95;100040.09;4954812;28;45428;-75
2023/07/24 08:44:10;;;;;;;;;2.00;2.00;;;;;24.24;43.65;100116.16;4958072;28;45546;-74
2023/07/24 08:46:41;;;;;;;;;2.00;2.00;;;;;24.09;43.95;100091.28;4959491;28;45447;-76
2023/07/24 08:49:16;;;;;;;;;3.75;2.00;;;;;23.63;43.74;100022.84;4958115;28;46249;-75
2023/07/24 08:51:42;;;;;;;;;1.25;1.25;;;;;24.24;43.63;100125.03;4958868;28;45402;-75
2023/07/24 08:54:09;;;;;;;;;1.75;1.50;;;;;24.20;42.75;100101.25;4960784;28;45460;-75
2023/07/24 08:56:37;;;;;;;;;3.00;2.00;;;;;24.29;42.96;100098.00;4958365;28;45544;-76
2023/07/24 08:59:03;;;;;;;;;4.00;2.25;;;;;23.99;42.48;100056.22;4954609;28;45682;-75
2023/07/24 09:01:29;;;;;;;;;3.00;3.00;;;;;24.44;42.11;100133.59;4956429;28;45561;-78
2023/07/24 09:03:56;;;;;;;;;1.00;1.00;;;;;24.49;43.04;100121.69;4967900;28;45372;-79
2023/07/24 09:06:21;;;;;;;;;3.00;3.00;;;;;24.45;43.17;100146.88;4960743;28;45524;-79
2023/07/24 09:08:48;;;;;;;;;3.00;2.25;;;;;24.46;43.00;100123.66;4967626;28;47859;-74
2023/07/24 09:11:14;;;;;;;;;2.00;2.00;;;;;24.32;42.69;100096.00;4957565;28;45494;-74
2023/07/24 09:13:43;;;;;;;;;2.00;1.25;;;;;24.01;43.60;100045.41;4957848;28;45551;-80
2023/07/24 09:16:20;;;;;;;;;2.25;1.00;;;;;23.97;43.04;100047.44;4956348;28;45599;-76
2023/07/24 09:18:45;;;;;;;;;3.00;3.00;;;;;24.09;41.82;100084.09;4957532;28;45548;-74
2023/07/24 09:21:12;;;;;;;;;2.00;2.00;;;;;24.49;41.59;100119.00;4956807;28;45398;-74
2023/07/24 09:23:43;;;;;;;;;2.00;2.00;;;;;24.60;41.36;100114.75;4957161;28;45345;-73
2023/07/24 09:26:09;;;;;;;;;2.00;2.00;;;;;24.54;41.13;100116.88;4955371;28;45451;-74
2023/07/24 09:28:35;;;;;;;;;2.00;2.00;;;;;24.66;41.18;100122.38;4956564;28;45601;-71
2023/07/24 09:31:01;;;;;;;;;1.00;1.00;;;;;24.52;41.02;100108.09;4957542;28;45475;-74
2023/07/24 09:33:39;;;;;;;;;5.25;2.00;;;;;24.54;40.71;100116.03;4958618;28;45257;-73
2023/07/24 09:36:08;;;;;;;;;2.00;2.00;;;;;24.33;41.47;100095.00;4943754;28;45655;-75
2023/07/24 09:38:34;;;;;;;;;2.25;2.25;;;;;24.41;42.06;100125.78;4956461;28;46317;-75
2023/07/24 09:41:05;;;;;;;;;2.75;2.00;;;;;24.44;41.79;100137.16;4957120;28;45361;-75
2023/07/24 09:43:32;;;;;;;;;4.00;2.00;;;;;24.41;41.65;100129.31;4956760;28;45379;-73
2023/07/24 09:45:58;;;;;;;;;1.75;1.75;;;;;24.22;42.38;100120.75;4957303;28;45602;-76
2023/07/24 09:48:31;;;;;;;;;2.25;2.00;;;;;24.08;42.28;100109.16;4956519;28;46205;-72
2023/07/24 09:50:59;;;;;;;;;2.00;2.00;;;;;24.19;42.28;100139.69;4957143;28;45395;-74
2023/07/24 09:53:43;;;;;;;;;2.00;1.50;;;;;24.37;42.04;100151.00;4958800;28;45469;-72
2023/07/24 09:56:09;;;;;;;;;2.50;2.50;;;;;24.43;42.18;100123.84;4960922;28;45562;-72
2023/07/24 09:58:37;;;;;;;;;2.25;2.25;;;;;24.50;42.07;100142.13;4957901;28;45964;-74
2023/07/24 10:01:08;;;;;;;;;3.75;2.00;;;;;24.49;42.07;100127.03;4960193;28;45594;-72
2023/07/24 10:03:38;;;;;;;;;2.00;2.00;;;;;24.43;41.93;100110.47;4959061;28;45696;-72
2023/07/24 10:06:04;;;;;;;;;3.00;2.00;;;;;24.59;42.11;100147.84;4959080;28;45897;-74
2023/07/24 10:08:30;;;;;;;;;3.00;3.00;;;;;24.69;41.92;100136.41;4961297;28;46512;-73
2023/07/24 10:10:58;;;;;;;;;3.25;2.00;;;;;24.79;41.44;100141.16;4958813;28;45520;-75
2023/07/24 10:13:26;;;;;;;;;2.00;2.00;;;;;24.80;40.94;100122.31;4960645;28;45451;-72
2023/07/24 10:15:52;;;;;;;;;2.00;2.00;;;;;24.88;40.70;100135.19;4960461;28;45511;-72
2023/07/24 10:18:29;;;;;;;;;4.50;1.25;;;;;24.89;40.80;100132.41;4960505;28;45486;-74
2023/07/24 10:21:09;;;;;;;;;2.00;2.00;;;;;24.89;40.62;100140.44;4960727;28;45507;-74
2023/07/24 10:23:46;;;;;;;;;1.75;1.75;;;;;24.87;40.79;100126.31;4950696;28;45384;-73
2023/07/24 10:26:12;;;;;;;;;1.00;1.00;;;;;25.19;40.72;100150.06;4958899;28;45553;-72
2023/07/24 10:28:40;;;;;;;;;2.25;2.25;;;;;25.20;40.62;100137.53;4959967;28;46371;-75
2023/07/24 10:31:20;;;;;;;;;1.75;1.75;;;;;25.15;40.85;100140.47;4959549;28;45438;-72
2023/07/24 10:33:46;;;;;;;;;3.25;3.25;;;;;25.26;40.67;100137.97;4959854;28;45440;-72
2023/07/24 10:36:15;;;;;;;;;2.00;2.00;;;;;25.08;40.04;100099.00;4959712;28;45492;-72
2023/07/24 10:38:42;;;;;;;;;3.00;1.00;;;;;24.98;39.81;100061.25;4958165;28;46778;-71
2023/07/24 10:41:10;;;;;;;;;1.25;1.25;;;;;25.47;39.84;100129.41;4958513;28;45807;-71
2023/07/24 10:43:44;;;;;;;;;2.00;2.00;;;;;25.44;39.22;100109.03;4959269;28;45506;-73
2023/07/24 10:46:11;;;;;;;;;1.25;1.25;;;;;25.49;38.92;100114.94;4957665;28;45612;-73
2023/07/24 10:48:37;;;;;;;;;2.50;2.50;;;;;25.68;38.92;100140.47;4958826;28;45622;-73
2023/07/24 10:51:10;;;;;;;;;2.00;2.00;;;;;25.42;39.11;100097.56;4959096;28;45365;-73
2023/07/24 10:53:40;;;;;;;;;3.50;2.75;;;;;25.47;40.05;100116.84;4959638;28;45413;-71
2023/07/24 10:56:07;;;;;;;;;4.25;3.00;;;;;25.43;39.86;100144.84;4959633;28;45435;-73
2023/07/24 10:58:33;;;;;;;;;2.00;2.00;;;;;25.53;39.53;100137.00;4959330;28;45478;-74
2023/07/24 11:00:59;;;;;;;;;2.00;2.00;;;;;25.07;39.47;100049.06;4959429;28;45393;-74
2023/07/24 11:03:25;;;;;;;;;2.25;2.25;;;;;25.71;39.88;100143.78;4959345;28;45582;-72
2023/07/24 11:05:52;;;;;;;;;2.75;2.00;;;;;25.56;39.30;100112.69;4960292;28;45463;-73
2023/07/24 11:08:19;;;;;;;;;3.00;2.50;;;;;25.53;38.98;100128.97;4958930;28;45460;-73
2023/07/24 11:10:49;;;;;;;;;2.00;2.00;;;;;25.45;39.56;100136.69;4958874;28;45496;-72
2023/07/24 11:13:22;;;;;;;;;3.25;2.00;;;;;25.33;40.11;100151.81;4957641;28;45374;-72
2023/07/24 11:15:49;;;;;;;;;2.00;2.00;;;;;25.32;40.10;100131.34;4955781;28;45405;-74
2023/07/24 11:18:20;;;;;;;;;3.75;2.00;;;;;25.61;39.63;100142.72;4959113;28;45673;-73
2023/07/24 11:20:47;;;;;;;;;2.00;2.00;;;;;25.80;39.71;100151.16;4958629;28;45623;-72
2023/07/24 11:23:13;;;;;;;;;3.00;3.00;;;;;25.98;39.59;100143.69;4959204;28;45459;-73
2023/07/24 11:25:39;;;;;;;;;3.00;3.00;;;;;25.93;38.92;100128.84;4959272;28;45587;-73
2023/07/24 11:28:10;;;;;;;;;2.25;2.25;;;;;25.89;39.08;100149.69;4958788;28;45286;-72